sensor_id;sensor_type;location;lat;lon;timestamp;pressure;altitude;pressure_sealevel;temperature;humidity
13732;BME280;6937;56.096;12.664;2023-03-25T00:00:06;98681.72;;;8.05;100.00
13732;BME280;6937;56.096;12.664;2023-03-25T00:02:37;98681.56;;;8.07;100.00
13732;BME280;6937;56.096;12.664;2023-03-25T00:05:03;98671.63;;;8.09;100.00
13732;BME280;6937;56.096;12.664;2023-03-25T00:07:28;98655.81;;;8.07;100.00
13732;BME280;6937;56.096;12.664;2023-03-25T00:09:54;98667.41;;;8.06;100.00
13732;BME280;6937;56.096;12.664;2023-03-25T00:12:19;98659.06;;;8.01;100.00
13732;BME280;6937;56.096;12.664;2023-03-25T00:14:45;98656.09;;;8.04;100.00
13732;BME280;6937;56.096;12.664;2023-03-25T00:17:21;98635.97;;;8.02;100.00
13732;BME280;6937;56.096;12.664;2023-03-25T00:19:47;98642.56;;;7.98;100.00
13732;BME280;6937;56.096;12.664;2023-03-25T00:22:17;98630.38;;;7.95;100.00
13732;BME280;6937;56.096;12.664;2023-03-25T00:24:43;98634.03;;;7.94;100.00
13732;BME280;6937;56.096;12.664;2023-03-25T00:27:08;98625.34;;;7.92;100.00
13732;BME280;6937;56.096;12.664;2023-03-25T00:29:34;98624.25;;;7.95;100.00
13732;BME280;6937;56.096;12.664;2023-03-25T00:31:59;98615.25;;;7.96;100.00
13732;BME280;6937;56.096;12.664;2023-03-25T00:34:24;98600.84;;;7.98;100.00
13732;BME280;6937;56.096;12.664;2023-03-25T00:36:50;98595.38;;;8.00;100.00
13732;BME280;6937;56.096;12.664;2023-03-25T00:39:15;98580.56;;;7.97;100.00
13732;BME280;6937;56.096;12.664;2023-03-25T00:41:40;98590.88;;;8.00;100.00
13732;BME280;6937;56.096;12.664;2023-03-25T00:44:08;98573.78;;;8.03;100.00
13732;BME280;6937;56.096;12.664;2023-03-25T00:46:36;98572.94;;;8.02;100.00
13732;BME280;6937;56.096;12.664;2023-03-25T00:49:02;98570.00;;;8.05;100.00
13732;BME280;6937;56.096;12.664;2023-03-25T00:51:28;98551.41;;;8.05;100.00
13732;BME280;6937;56.096;12.664;2023-03-25T00:53:56;98541.44;;;8.07;100.00
13732;BME280;6937;56.096;12.664;2023-03-25T00:56:25;98533.00;;;8.12;100.00
13732;BME280;6937;56.096;12.664;2023-03-25T00:58:51;98531.72;;;8.16;100.00
13732;BME280;6937;56.096;12.664;2023-03-25T01:01:19;98520.53;;;8.12;100.00
13732;BME280;6937;56.096;12.664;2023-03-25T01:03:48;98531.63;;;8.08;100.00
13732;BME280;6937;56.096;12.664;2023-03-25T01:06:15;98518.47;;;8.06;100.00
13732;BME280;6937;56.096;12.664;2023-03-25T01:08:42;98517.66;;;8.06;100.00
13732;BME280;6937;56.096;12.664;2023-03-25T01:11:22;98505.56;;;8.11;100.00
13732;BME280;6937;56.096;12.664;2023-03-25T01:13:48;98499.41;;;8.11;100.00
13732;BME280;6937;56.096;12.664;2023-03-25T01:16:13;98491.94;;;8.14;100.00
13732;BME280;6937;56.096;12.664;2023-03-25T01:18:39;98486.63;;;8.14;100.00
13732;BME280;6937;56.096;12.664;2023-03-25T01:21:06;98469.69;;;8.15;100.00
13732;BME280;6937;56.096;12.664;2023-03-25T01:23:32;98461.03;;;8.13;100.00
13732;BME280;6937;56.096;12.664;2023-03-25T01:25:58;98447.75;;;8.13;100.00
13732;BME280;6937;56.096;12.664;2023-03-25T01:28:24;98450.53;;;8.12;100.00
13732;BME280;6937;56.096;12.664;2023-03-25T01:30:50;98432.75;;;8.12;100.00
13732;BME280;6937;56.096;12.664;2023-03-25T01:33:15;98432.31;;;8.17;100.00
13732;BME280;6937;56.096;12.664;2023-03-25T01:35:41;98428.94;;;8.15;100.00
13732;BME280;6937;56.096;12.664;2023-03-25T01:38:06;98416.63;;;8.14;100.00
13732;BME280;6937;56.096;12.664;2023-03-25T01:40:32;98402.81;;;8.10;100.00
13732;BME280;6937;56.096;12.664;2023-03-25T01:42:57;98401.59;;;8.05;100.00
13732;BME280;6937;56.096;12.664;2023-03-25T01:45:28;98382.59;;;8.00;100.00
13732;BME280;6937;56.096;12.664;2023-03-25T01:48:07;98378.88;;;7.93;100.00
13732;BME280;6937;56.096;12.664;2023-03-25T01:50:37;98375.56;;;7.91;100.00
13732;BME280;6937;56.096;12.664;2023-03-25T01:53:05;98366.75;;;7.90;100.00
13732;BME280;6937;56.096;12.664;2023-03-25T01:55:33;98358.06;;;7.88;100.00
13732;BME280;6937;56.096;12.664;2023-03-25T01:58:01;98341.97;;;7.90;100.00
13732;BME280;6937;56.096;12.664;2023-03-25T02:00:30;98337.09;;;7.85;100.00
13732;BME280;6937;56.096;12.664;2023-03-25T02:02:57;98339.22;;;7.82;100.00
13732;BME280;6937;56.096;12.664;2023-03-25T02:05:39;98351.03;;;7.79;100.00
13732;BME280;6937;56.096;12.664;2023-03-25T02:08:06;98352.63;;;7.72;100.00
13732;BME280;6937;56.096;12.664;2023-03-25T02:10:33;98346.59;;;7.70;100.00
13732;BME280;6937;56.096;12.664;2023-03-25T02:13:00;98360.88;;;7.69;100.00
13732;BME280;6937;56.096;12.664;2023-03-25T02:15:26;98355.88;;;7.66;100.00
13732;BME280;6937;56.096;12.664;2023-03-25T02:20:24;98350.00;;;7.62;100.00
13732;BME280;6937;56.096;12.664;2023-03-25T02:31:45;98327.59;;;7.47;100.00
13732;BME280;6937;56.096;12.664;2023-03-25T02:42:32;98304.63;;;7.38;100.00
13732;BME280;6937;56.096;12.664;2023-03-25T02:45:02;98303.47;;;7.41;100.00
13732;BME280;6937;56.096;12.664;2023-03-25T02:47:35;98285.53;;;7.43;100.00
13732;BME280;6937;56.096;12.664;2023-03-25T02:50:08;98275.16;;;7.49;100.00
13732;BME280;6937;56.096;12.664;2023-03-25T02:52:49;98276.00;;;7.50;100.00
13732;BME280;6937;56.096;12.664;2023-03-25T02:55:17;98263.38;;;7.52;100.00
13732;BME280;6937;56.096;12.664;2023-03-25T02:57:45;98271.03;;;7.55;100.00
13732;BME280;6937;56.096;12.664;2023-03-25T03:00:14;98271.22;;;7.53;100.00
13732;BME280;6937;56.096;12.664;2023-03-25T03:02:44;98284.78;;;7.50;100.00
13732;BME280;6937;56.096;12.664;2023-03-25T03:05:30;98283.13;;;7.49;100.00
13732;BME280;6937;56.096;12.664;2023-03-25T03:18:36;98299.59;;;7.53;100.00
13732;BME280;6937;56.096;12.664;2023-03-25T03:21:17;98290.28;;;7.49;100.00
13732;BME280;6937;56.096;12.664;2023-03-25T03:26:28;98276.00;;;7.50;100.00
13732;BME280;6937;56.096;12.664;2023-03-25T03:29:12;98281.97;;;7.52;100.00
13732;BME280;6937;56.096;12.664;2023-03-25T03:34:51;98277.28;;;7.46;100.00
13732;BME280;6937;56.096;12.664;2023-03-25T03:37:28;98275.94;;;7.42;100.00
13732;BME280;6937;56.096;12.664;2023-03-25T03:39:56;98268.22;;;7.39;100.00
13732;BME280;6937;56.096;12.664;2023-03-25T03:45:18;98252.00;;;7.42;100.00
13732;BME280;6937;56.096;12.664;2023-03-25T03:47:49;98254.50;;;7.43;100.00
13732;BME280;6937;56.096;12.664;2023-03-25T03:50:23;98242.06;;;7.44;100.00
13732;BME280;6937;56.096;12.664;2023-03-25T03:53:08;98243.41;;;7.48;100.00
13732;BME280;6937;56.096;12.664;2023-03-25T03:55:42;98238.41;;;7.45;100.00
13732;BME280;6937;56.096;12.664;2023-03-25T03:58:15;98241.75;;;7.47;100.00
13732;BME280;6937;56.096;12.664;2023-03-25T04:00:47;98232.13;;;7.46;100.00
13732;BME280;6937;56.096;12.664;2023-03-25T04:03:20;98236.91;;;7.42;100.00
13732;BME280;6937;56.096;12.664;2023-03-25T04:05:54;98227.41;;;7.40;100.00
13732;BME280;6937;56.096;12.664;2023-03-25T04:08:30;98245.03;;;7.41;100.00
13732;BME280;6937;56.096;12.664;2023-03-25T04:11:09;98235.91;;;7.43;100.00
13732;BME280;6937;56.096;12.664;2023-03-25T04:13:40;98230.28;;;7.46;100.00
13732;BME280;6937;56.096;12.664;2023-03-25T04:16:07;98234.59;;;7.47;100.00
13732;BME280;6937;56.096;12.664;2023-03-25T04:18:33;98240.38;;;7.43;100.00
13732;BME280;6937;56.096;12.664;2023-03-25T04:20:59;98240.53;;;7.41;100.00
13732;BME280;6937;56.096;12.664;2023-03-25T04:23:26;98242.50;;;7.39;100.00
13732;BME280;6937;56.096;12.664;2023-03-25T04:25:54;98241.66;;;7.39;100.00
13732;BME280;6937;56.096;12.664;2023-03-25T04:28:19;98249.94;;;7.36;100.00
13732;BME280;6937;56.096;12.664;2023-03-25T04:30:45;98242.81;;;7.36;100.00
13732;BME280;6937;56.096;12.664;2023-03-25T04:33:12;98241.97;;;7.36;100.00
13732;BME280;6937;56.096;12.664;2023-03-25T04:35:39;98235.69;;;7.37;100.00
13732;BME280;6937;56.096;12.664;2023-03-25T04:38:06;98226.88;;;7.36;100.00
13732;BME280;6937;56.096;12.664;2023-03-25T04:40:32;98235.16;;;7.33;100.00
13732;BME280;6937;56.096;12.664;2023-03-25T04:42:57;98238.78;;;7.32;100.00
13732;BME280;6937;56.096;12.664;2023-03-25T04:45:23;98229.00;;;7.33;100.00
13732;BME280;6937;56.096;12.664;2023-03-25T04:47:49;98237.94;;;7.32;100.00
13732;BME280;6937;56.096;12.664;2023-03-25T04:50:28;98229.00;;;7.33;100.00
13732;BME280;6937;56.096;12.664;2023-03-25T04:52:55;98225.94;;;7.27;100.00
13732;BME280;6937;56.096;12.664;2023-03-25T04:55:22;98232.94;;;7.28;100.00
13732;BME280;6937;56.096;12.664;2023-03-25T04:57:49;98229.97;;;7.32;100.00
13732;BME280;6937;56.096;12.664;2023-03-25T05:00:18;98233.78;;;7.29;100.00
13732;BME280;6937;56.096;12.664;2023-03-25T05:02:49;98230.81;;;7.32;100.00
13732;BME280;6937;56.096;12.664;2023-03-25T05:05:17;98237.94;;;7.32;100.00
13732;BME280;6937;56.096;12.664;2023-03-25T05:07:47;98225.19;;;7.35;100.00
13732;BME280;6937;56.096;12.664;2023-03-25T05:10:15;98227.72;;;7.37;100.00
13732;BME280;6937;56.096;12.664;2023-03-25T05:12:41;98226.72;;;7.38;100.00
13732;BME280;6937;56.096;12.664;2023-03-25T05:15:07;98218.75;;;7.38;100.00
13732;BME280;6937;56.096;12.664;2023-03-25T05:17:34;98217.75;;;7.39;100.00
13732;BME280;6937;56.096;12.664;2023-03-25T05:19:59;98218.59;;;7.39;100.00
13732;BME280;6937;56.096;12.664;2023-03-25T05:22:24;98213.13;;;7.41;100.00
13732;BME280;6937;56.096;12.664;2023-03-25T05:24:50;98202.66;;;7.39;100.00
13732;BME280;6937;56.096;12.664;2023-03-25T05:27:18;98204.47;;;7.39;100.00
13732;BME280;6937;56.096;12.664;2023-03-25T05:29:44;98203.66;;;7.38;100.00
13732;BME280;6937;56.096;12.664;2023-03-25T05:32:10;98202.81;;;7.38;100.00
13732;BME280;6937;56.096;12.664;2023-03-25T05:34:38;98197.81;;;7.35;100.00
13732;BME280;6937;56.096;12.664;2023-03-25T05:37:04;98194.16;;;7.36;100.00
13732;BME280;6937;56.096;12.664;2023-03-25T05:39:29;98197.50;;;7.38;100.00
13732;BME280;6937;56.096;12.664;2023-03-25T05:41:55;98206.66;;;7.43;100.00
13732;BME280;6937;56.096;12.664;2023-03-25T05:44:26;98200.38;;;7.44;100.00
13732;BME280;6937;56.096;12.664;2023-03-25T05:46:52;98206.53;;;7.45;100.00
13732;BME280;6937;56.096;12.664;2023-03-25T05:49:18;98199.53;;;7.44;100.00
13732;BME280;6937;56.096;12.664;2023-03-25T05:51:43;98194.22;;;7.44;100.00
13732;BME280;6937;56.096;12.664;2023-03-25T05:54:09;98194.22;;;7.44;100.00
13732;BME280;6937;56.096;12.664;2023-03-25T05:56:37;98195.72;;;7.46;100.00
13732;BME280;6937;56.096;12.664;2023-03-25T05:59:03;98208.72;;;7.49;100.00
13732;BME280;6937;56.096;12.664;2023-03-25T06:01:29;98206.75;;;7.51;100.00
13732;BME280;6937;56.096;12.664;2023-03-25T06:03:54;98209.59;;;7.58;100.00
13732;BME280;6937;56.096;12.664;2023-03-25T06:06:20;98208.47;;;7.60;100.00
13732;BME280;6937;56.096;12.664;2023-03-25T06:08:47;98203.69;;;7.64;100.00
13732;BME280;6937;56.096;12.664;2023-03-25T06:11:18;98205.19;;;7.66;100.00
13732;BME280;6937;56.096;12.664;2023-03-25T06:13:45;98210.19;;;7.69;100.00
13732;BME280;6937;56.096;12.664;2023-03-25T06:16:18;98208.91;;;7.73;100.00
13732;BME280;6937;56.096;12.664;2023-03-25T06:18:48;98216.09;;;7.81;100.00
13732;BME280;6937;56.096;12.664;2023-03-25T06:21:18;98205.97;;;7.85;100.00
13732;BME280;6937;56.096;12.664;2023-03-25T06:23:45;98208.66;;;7.85;100.00
13732;BME280;6937;56.096;12.664;2023-03-25T06:26:12;98214.28;;;7.82;100.00
13732;BME280;6937;56.096;12.664;2023-03-25T06:28:38;98219.06;;;7.78;100.00
13732;BME280;6937;56.096;12.664;2023-03-25T06:31:03;98206.31;;;7.82;100.00
13732;BME280;6937;56.096;12.664;2023-03-25T06:33:31;98210.47;;;7.84;100.00
13732;BME280;6937;56.096;12.664;2023-03-25T06:35:56;98203.13;;;7.78;100.00
13732;BME280;6937;56.096;12.664;2023-03-25T06:38:22;98203.50;;;7.83;100.00
13732;BME280;6937;56.096;12.664;2023-03-25T06:40:47;98206.81;;;7.85;100.00
13732;BME280;6937;56.096;12.664;2023-03-25T06:43:13;98212.53;;;7.90;100.00
13732;BME280;6937;56.096;12.664;2023-03-25T06:45:38;98209.03;;;7.90;100.00
13732;BME280;6937;56.096;12.664;2023-03-25T06:48:04;98208.19;;;7.89;100.00
13732;BME280;6937;56.096;12.664;2023-03-25T06:50:30;98210.00;;;7.89;100.00
13732;BME280;6937;56.096;12.664;2023-03-25T06:52:56;98207.34;;;7.89;100.00
13732;BME280;6937;56.096;12.664;2023-03-25T06:55:21;98207.34;;;7.89;100.00
13732;BME280;6937;56.096;12.664;2023-03-25T06:57:47;98208.56;;;7.94;100.00
13732;BME280;6937;56.096;12.664;2023-03-25T07:00:12;98205.56;;;7.97;100.00
13732;BME280;6937;56.096;12.664;2023-03-25T07:02:38;98216.25;;;8.05;100.00
13732;BME280;6937;56.096;12.664;2023-03-25T07:05:04;98205.50;;;8.15;100.00
13732;BME280;6937;56.096;12.664;2023-03-25T07:07:30;98212.88;;;8.21;100.00
13732;BME280;6937;56.096;12.664;2023-03-25T07:09:55;98212.22;;;8.27;100.00
13732;BME280;6937;56.096;12.664;2023-03-25T07:12:22;98204.66;;;8.32;100.00
13732;BME280;6937;56.096;12.664;2023-03-25T07:14:54;98212.97;;;8.37;100.00
13732;BME280;6937;56.096;12.664;2023-03-25T07:17:20;98213.66;;;8.39;100.00
13732;BME280;6937;56.096;12.664;2023-03-25T07:19:46;98217.31;;;8.38;100.00
13732;BME280;6937;56.096;12.664;2023-03-25T07:22:12;98221.25;;;8.34;100.00
13732;BME280;6937;56.096;12.664;2023-03-25T07:24:37;98215.81;;;8.36;100.00
13732;BME280;6937;56.096;12.664;2023-03-25T07:27:02;98213.47;;;8.41;100.00
13732;BME280;6937;56.096;12.664;2023-03-25T07:29:28;98220.31;;;8.43;100.00
13732;BME280;6937;56.096;12.664;2023-03-25T07:31:53;98217.16;;;8.40;100.00
13732;BME280;6937;56.096;12.664;2023-03-25T07:34:18;98223.28;;;8.40;100.00
13732;BME280;6937;56.096;12.664;2023-03-25T07:36:44;98215.81;;;8.44;100.00
13732;BME280;6937;56.096;12.664;2023-03-25T07:39:09;98213.03;;;8.53;100.00
13732;BME280;6937;56.096;12.664;2023-03-25T07:41:35;98220.03;;;8.62;100.00
13732;BME280;6937;56.096;12.664;2023-03-25T07:44:00;98224.41;;;8.71;100.00
13732;BME280;6937;56.096;12.664;2023-03-25T07:46:25;98215.13;;;8.76;100.00
13732;BME280;6937;56.096;12.664;2023-03-25T07:48:51;98230.28;;;8.83;100.00
13732;BME280;6937;56.096;12.664;2023-03-25T07:51:16;98233.97;;;8.90;100.00
13732;BME280;6937;56.096;12.664;2023-03-25T07:53:42;98235.16;;;8.96;100.00
13732;BME280;6937;56.096;12.664;2023-03-25T07:56:10;98218.84;;;8.99;100.00
13732;BME280;6937;56.096;12.664;2023-03-25T07:58:36;98235.84;;;9.06;100.00
13732;BME280;6937;56.096;12.664;2023-03-25T08:01:01;98241.53;;;9.11;100.00
13732;BME280;6937;56.096;12.664;2023-03-25T08:03:27;98240.69;;;9.10;100.00
13732;BME280;6937;56.096;12.664;2023-03-25T08:05:52;98242.50;;;9.10;100.00
13732;BME280;6937;56.096;12.664;2023-03-25T08:08:18;98251.34;;;9.10;100.00
13732;BME280;6937;56.096;12.664;2023-03-25T08:10:44;98240.50;;;9.12;100.00
13732;BME280;6937;56.096;12.664;2023-03-25T08:13:11;98257.19;;;9.14;100.00
13732;BME280;6937;56.096;12.664;2023-03-25T08:15:37;98254.31;;;9.15;100.00
13732;BME280;6937;56.096;12.664;2023-03-25T08:18:03;98256.34;;;9.21;100.00
13732;BME280;6937;56.096;12.664;2023-03-25T08:20:30;98260.19;;;9.27;100.00
13732;BME280;6937;56.096;12.664;2023-03-25T08:22:56;98261.72;;;9.30;100.00
13732;BME280;6937;56.096;12.664;2023-03-25T08:25:22;98270.22;;;9.33;100.00
13732;BME280;6937;56.096;12.664;2023-03-25T08:27:48;98266.03;;;9.39;100.00
13732;BME280;6937;56.096;12.664;2023-03-25T08:30:14;98273.91;;;9.48;100.00
13732;BME280;6937;56.096;12.664;2023-03-25T08:32:40;98269.38;;;9.49;100.00
13732;BME280;6937;56.096;12.664;2023-03-25T08:35:06;98273.91;;;9.48;100.00
13732;BME280;6937;56.096;12.664;2023-03-25T08:37:31;98271.03;;;9.50;100.00
13732;BME280;6937;56.096;12.664;2023-03-25T08:40:03;98282.56;;;9.50;100.00
13732;BME280;6937;56.096;12.664;2023-03-25T08:42:36;98274.91;;;9.55;100.00
13732;BME280;6937;56.096;12.664;2023-03-25T08:45:02;98288.88;;;9.57;100.00
13732;BME280;6937;56.096;12.664;2023-03-25T08:47:28;98284.38;;;9.58;100.00
13732;BME280;6937;56.096;12.664;2023-03-25T08:49:53;98282.91;;;9.63;100.00
13732;BME280;6937;56.096;12.664;2023-03-25T08:52:19;98288.25;;;9.63;100.00
13732;BME280;6937;56.096;12.664;2023-03-25T08:54:44;98287.06;;;9.66;100.00
13732;BME280;6937;56.096;12.664;2023-03-25T08:57:10;98291.06;;;9.70;100.00
13732;BME280;6937;56.096;12.664;2023-03-25T08:59:35;98295.91;;;9.75;100.00
13732;BME280;6937;56.096;12.664;2023-03-25T09:02:01;98287.41;;;9.79;100.00
13732;BME280;6937;56.096;12.664;2023-03-25T09:04:26;98300.59;;;9.89;100.00
13732;BME280;6937;56.096;12.664;2023-03-25T09:06:51;98304.09;;;9.89;100.00
13732;BME280;6937;56.096;12.664;2023-03-25T09:09:17;98306.75;;;9.89;100.00
13732;BME280;6937;56.096;12.664;2023-03-25T09:11:42;98308.09;;;9.85;100.00
13732;BME280;6937;56.096;12.664;2023-03-25T09:14:08;98318.91;;;9.84;100.00
13732;BME280;6937;56.096;12.664;2023-03-25T09:16:34;98322.06;;;9.87;100.00
13732;BME280;6937;56.096;12.664;2023-03-25T09:19:00;98335.41;;;9.87;100.00
13732;BME280;6937;56.096;12.664;2023-03-25T09:21:25;98356.75;;;9.87;100.00
13732;BME280;6937;56.096;12.664;2023-03-25T09:23:51;98373.94;;;9.93;100.00
13732;BME280;6937;56.096;12.664;2023-03-25T09:26:16;98372.44;;;9.98;100.00
13732;BME280;6937;56.096;12.664;2023-03-25T09:28:42;98396.47;;;10.06;100.00
13732;BME280;6937;56.096;12.664;2023-03-25T09:31:07;98417.66;;;10.08;100.00
13732;BME280;6937;56.096;12.664;2023-03-25T09:33:34;98422.19;;;10.15;100.00
13732;BME280;6937;56.096;12.664;2023-03-25T09:35:59;98416.53;;;10.18;100.00
13732;BME280;6937;56.096;12.664;2023-03-25T09:38:25;98423.31;;;10.13;100.00
13732;BME280;6937;56.096;12.664;2023-03-25T09:40:50;98392.00;;;10.15;100.00
13732;BME280;6937;56.096;12.664;2023-03-25T09:45:48;98404.97;;;10.02;100.00
13732;BME280;6937;56.096;12.664;2023-03-25T09:48:27;98403.13;;;9.94;100.00
13732;BME280;6937;56.096;12.664;2023-03-25T09:50:55;98411.13;;;9.94;100.00
13732;BME280;6937;56.096;12.664;2023-03-25T09:55:55;98396.94;;;9.94;100.00
13732;BME280;6937;56.096;12.664;2023-03-25T09:58:51;98412.13;;;10.01;100.00
13732;BME280;6937;56.096;12.664;2023-03-25T10:01:45;98403.13;;;10.10;100.00
13732;BME280;6937;56.096;12.664;2023-03-25T10:07:04;98433.19;;;10.21;100.00
13732;BME280;6937;56.096;12.664;2023-03-25T10:09:50;98441.22;;;10.29;100.00
13732;BME280;6937;56.096;12.664;2023-03-25T10:20:18;98486.81;;;10.76;100.00
13732;BME280;6937;56.096;12.664;2023-03-25T10:25:35;98560.25;;;10.72;100.00
13732;BME280;6937;56.096;12.664;2023-03-25T10:28:04;98579.28;;;10.68;100.00
13732;BME280;6937;56.096;12.664;2023-03-25T10:30:45;98619.00;;;10.55;100.00
13732;BME280;6937;56.096;12.664;2023-03-25T10:33:36;98626.78;;;10.41;100.00
13732;BME280;6937;56.096;12.664;2023-03-25T10:36:03;98623.78;;;10.44;100.00
13732;BME280;6937;56.096;12.664;2023-03-25T10:38:32;98641.97;;;10.40;100.00
13732;BME280;6937;56.096;12.664;2023-03-25T10:41:23;98652.28;;;10.35;100.00
13732;BME280;6937;56.096;12.664;2023-03-25T10:43:50;98657.00;;;10.41;100.00
13732;BME280;6937;56.096;12.664;2023-03-25T10:46:24;98650.72;;;10.58;100.00
13732;BME280;6937;56.096;12.664;2023-03-25T10:48:50;98669.75;;;10.63;100.00
13732;BME280;6937;56.096;12.664;2023-03-25T10:51:18;98679.25;;;10.58;100.00
13732;BME280;6937;56.096;12.664;2023-03-25T10:53:49;98711.16;;;10.59;100.00
13732;BME280;6937;56.096;12.664;2023-03-25T10:56:36;98718.16;;;10.60;100.00
13732;BME280;6937;56.096;12.664;2023-03-25T10:59:35;98726.66;;;10.56;100.00
13732;BME280;6937;56.096;12.664;2023-03-25T11:02:04;98728.81;;;10.52;100.00
13732;BME280;6937;56.096;12.664;2023-03-25T11:04:37;98732.81;;;10.48;100.00
13732;BME280;6937;56.096;12.664;2023-03-25T11:07:18;98752.66;;;10.54;100.00
13732;BME280;6937;56.096;12.664;2023-03-25T11:09:44;98767.25;;;10.59;100.00
13732;BME280;6937;56.096;12.664;2023-03-25T11:12:09;98769.06;;;10.59;100.00
13732;BME280;6937;56.096;12.664;2023-03-25T11:14:37;98760.44;;;10.73;100.00
13732;BME280;6937;56.096;12.664;2023-03-25T11:17:09;98786.22;;;10.82;100.00
13732;BME280;6937;56.096;12.664;2023-03-25T11:19:39;98789.09;;;10.97;100.00
13732;BME280;6937;56.096;12.664;2023-03-25T11:22:26;98805.84;;;11.07;100.00
13732;BME280;6937;56.096;12.664;2023-03-25T11:24:59;98823.91;;;11.13;100.00
13732;BME280;6937;56.096;12.664;2023-03-25T11:27:27;98845.16;;;11.23;100.00
13732;BME280;6937;56.096;12.664;2023-03-25T11:29:55;98847.53;;;11.34;100.00
13732;BME280;6937;56.096;12.664;2023-03-25T11:32:23;98860.78;;;11.43;100.00
13732;BME280;6937;56.096;12.664;2023-03-25T11:34:55;98879.00;;;11.48;100.00
13732;BME280;6937;56.096;12.664;2023-03-25T11:37:22;98892.88;;;11.43;100.00
13732;BME280;6937;56.096;12.664;2023-03-25T11:39:53;98905.66;;;11.24;100.00
13732;BME280;6937;56.096;12.664;2023-03-25T11:44:58;98934.59;;;10.94;100.00
13732;BME280;6937;56.096;12.664;2023-03-25T11:47:26;98931.59;;;10.97;100.00
13732;BME280;6937;56.096;12.664;2023-03-25T11:49:54;98943.41;;;10.95;100.00
13732;BME280;6937;56.096;12.664;2023-03-25T11:52:22;98935.63;;;11.01;100.00
13732;BME280;6937;56.096;12.664;2023-03-25T11:54:48;98936.50;;;11.10;100.00
13732;BME280;6937;56.096;12.664;2023-03-25T11:57:21;98935.69;;;11.18;100.00
13732;BME280;6937;56.096;12.664;2023-03-25T11:59:48;98949.06;;;11.18;100.00
13732;BME280;6937;56.096;12.664;2023-03-25T12:02:25;98945.78;;;11.24;100.00
13732;BME280;6937;56.096;12.664;2023-03-25T12:04:56;98948.78;;;11.21;100.00
13732;BME280;6937;56.096;12.664;2023-03-25T12:07:22;98959.47;;;11.29;100.00
13732;BME280;6937;56.096;12.664;2023-03-25T12:09:57;98940.81;;;11.37;100.00
13732;BME280;6937;56.096;12.664;2023-03-25T12:15:48;98948.53;;;11.82;100.00
13732;BME280;6937;56.096;12.664;2023-03-25T12:34:58;98961.66;;;11.67;100.00
13732;BME280;6937;56.096;12.664;2023-03-25T12:40:27;98931.53;;;11.57;100.00
13732;BME280;6937;56.096;12.664;2023-03-25T12:43:09;98902.47;;;11.62;100.00
13732;BME280;6937;56.096;12.664;2023-03-25T12:46:05;98882.22;;;11.68;100.00
13732;BME280;6937;56.096;12.664;2023-03-25T12:54:03;98862.91;;;11.40;100.00
13732;BME280;6937;56.096;12.664;2023-03-25T12:59:31;98859.75;;;11.44;100.00
13732;BME280;6937;56.096;12.664;2023-03-25T13:02:31;98854.06;;;11.47;100.00
13732;BME280;6937;56.096;12.664;2023-03-25T13:07:46;98845.47;;;11.78;100.00
13732;BME280;6937;56.096;12.664;2023-03-25T13:10:16;98839.16;;;12.03;100.00
13732;BME280;6937;56.096;12.664;2023-03-25T13:12:49;98828.63;;;12.26;100.00
13732;BME280;6937;56.096;12.664;2023-03-25T13:15:23;98847.19;;;12.27;100.00
13732;BME280;6937;56.096;12.664;2023-03-25T13:17:59;98853.72;;;12.25;100.00
13732;BME280;6937;56.096;12.664;2023-03-25T13:20:30;98892.22;;;12.48;100.00
13732;BME280;6937;56.096;12.664;2023-03-25T13:23:00;98887.66;;;12.65;100.00
13732;BME280;6937;56.096;12.664;2023-03-25T13:25:41;98891.03;;;12.67;100.00
13732;BME280;6937;56.096;12.664;2023-03-25T13:28:14;98923.97;;;12.75;100.00
13732;BME280;6937;56.096;12.664;2023-03-25T13:30:42;98949.81;;;12.52;100.00
13732;BME280;6937;56.096;12.664;2023-03-25T13:33:13;98951.97;;;12.32;100.00
13732;BME280;6937;56.096;12.664;2023-03-25T13:35:52;98962.66;;;12.08;100.00
13732;BME280;6937;56.096;12.664;2023-03-25T13:38:24;98979.81;;;11.81;100.00
13732;BME280;6937;56.096;12.664;2023-03-25T13:46:12;98975.19;;;11.57;100.00
13732;BME280;6937;56.096;12.664;2023-03-25T13:48:54;98974.16;;;11.58;100.00
13732;BME280;6937;56.096;12.664;2023-03-25T13:51:21;98972.31;;;11.51;100.00
13732;BME280;6937;56.096;12.664;2023-03-25T13:54:11;98960.56;;;11.44;100.00
13732;BME280;6937;56.096;12.664;2023-03-25T14:02:34;98966.09;;;11.42;100.00
13732;BME280;6937;56.096;12.664;2023-03-25T14:13:36;98934.91;;;11.25;100.00
13732;BME280;6937;56.096;12.664;2023-03-25T14:16:28;98926.88;;;11.17;100.00
13732;BME280;6937;56.096;12.664;2023-03-25T14:19:05;98920.81;;;11.15;100.00
13732;BME280;6937;56.096;12.664;2023-03-25T14:24:27;98895.81;;;11.24;100.00
13732;BME280;6937;56.096;12.664;2023-03-25T14:30:06;98897.97;;;11.21;100.00
13732;BME280;6937;56.096;12.664;2023-03-25T14:32:37;98887.56;;;11.18;100.00
13732;BME280;6937;56.096;12.664;2023-03-25T14:48:30;98940.41;;;11.99;100.00
13732;BME280;6937;56.096;12.664;2023-03-25T14:51:08;98970.09;;;11.72;100.00
13732;BME280;6937;56.096;12.664;2023-03-25T14:53:36;98975.03;;;11.67;100.00
13732;BME280;6937;56.096;12.664;2023-03-25T14:56:06;98976.53;;;12.11;100.00
13732;BME280;6937;56.096;12.664;2023-03-25T14:58:36;98989.47;;;12.32;100.00
13732;BME280;6937;56.096;12.664;2023-03-25T15:01:09;99005.75;;;11.81;100.00
13732;BME280;6937;56.096;12.664;2023-03-25T15:03:40;99010.28;;;11.54;100.00
13732;BME280;6937;56.096;12.664;2023-03-25T15:06:14;99000.84;;;11.42;100.00
13732;BME280;6937;56.096;12.664;2023-03-25T15:08:49;99003.69;;;11.15;100.00
13732;BME280;6937;56.096;12.664;2023-03-25T15:11:24;98994.56;;;11.00;100.00
13732;BME280;6937;56.096;12.664;2023-03-25T15:13:55;98991.84;;;10.92;100.00
13732;BME280;6937;56.096;12.664;2023-03-25T15:19:01;98965.28;;;10.47;100.00
13732;BME280;6937;56.096;12.664;2023-03-25T15:24:21;98927.63;;;10.58;100.00
13732;BME280;6937;56.096;12.664;2023-03-25T15:26:52;98915.59;;;10.54;100.00